createdAt,value
2017-08-08T00:00:33.497Z,0
2017-08-08T00:01:33.225Z,0
2017-08-08T00:02:33.516Z,0
2017-08-08T00:03:33.312Z,0
2017-08-08T00:04:33.322Z,0
2017-08-08T00:05:33.656Z,0
2017-08-08T00:06:33.668Z,0
2017-08-08T00:07:33.440Z,0
2017-08-08T00:08:33.468Z,0
2017-08-08T00:09:33.452Z,0
2017-08-08T00:10:33.531Z,0
2017-08-08T00:11:33.849Z,0
2017-08-08T00:12:33.303Z,0
2017-08-08T00:13:33.957Z,0
2017-08-08T00:14:34.317Z,0
2017-08-08T00:15:33.708Z,0
2017-08-08T00:16:34.654Z,0
2017-08-08T00:17:34.714Z,0
2017-08-08T00:18:34.765Z,0
2017-08-08T00:19:34.762Z,0
2017-08-08T00:20:34.795Z,0
2017-08-08T00:21:34.561Z,0
2017-08-08T00:22:34.885Z,0
2017-08-08T00:23:34.903Z,0
2017-08-08T00:24:34.654Z,0
2017-08-08T00:25:34.965Z,0
2017-08-08T00:26:34.702Z,0
2017-08-08T00:27:35.042Z,0
2017-08-08T00:28:35.401Z,0
2017-08-08T00:29:34.752Z,0
2017-08-08T00:30:35.109Z,0
2017-08-08T00:31:35.463Z,0
2017-08-08T00:32:36.343Z,0
2017-08-08T00:33:36.139Z,0
2017-08-08T00:34:36.470Z,0
2017-08-08T00:35:36.504Z,0
2017-08-08T00:36:36.205Z,0
2017-08-08T00:37:36.258Z,0
2017-08-08T00:38:36.642Z,0
2017-08-08T00:39:36.937Z,0
2017-08-08T00:40:36.680Z,0
2017-08-08T00:41:37.034Z,0
2017-08-08T00:42:36.742Z,0
2017-08-08T00:43:36.760Z,0
2017-08-08T00:44:36.833Z,0
2017-08-08T00:45:36.813Z,0
2017-08-08T00:46:36.881Z,0
2017-08-08T00:47:36.947Z,0
2017-08-08T00:48:36.963Z,0
2017-08-08T00:49:37.308Z,0
2017-08-08T00:50:37.039Z,0
2017-08-08T00:51:37.401Z,0
2017-08-08T00:52:37.074Z,0
2017-08-08T00:53:37.435Z,0
2017-08-08T00:54:37.462Z,0
2017-08-08T00:55:37.476Z,0
2017-08-08T00:56:37.536Z,0
2017-08-08T00:57:36.962Z,0
2017-08-08T00:58:37.918Z,0
2017-08-08T00:59:37.680Z,0
2017-08-08T01:00:38.310Z,0
2017-08-08T01:01:38.080Z,0
2017-08-08T01:02:38.376Z,0
2017-08-08T01:03:38.426Z,0
2017-08-08T01:04:38.451Z,0
2017-08-08T01:05:37.841Z,0
2017-08-08T01:06:38.809Z,0
2017-08-08T01:07:38.843Z,0
2017-08-08T01:08:38.572Z,0
2017-08-08T01:09:38.566Z,0
2017-08-08T01:10:38.666Z,0
2017-08-08T01:11:38.968Z,0
2017-08-08T01:12:39.002Z,0
2017-08-08T01:13:38.417Z,0
2017-08-08T01:14:39.102Z,0
2017-08-08T01:15:39.134Z,0
2017-08-08T01:16:38.841Z,0
2017-08-08T01:17:39.517Z,0
2017-08-08T01:18:39.840Z,0
2017-08-08T01:19:39.576Z,0
2017-08-08T01:20:39.941Z,0
2017-08-08T01:21:39.923Z,0
2017-08-08T01:22:39.669Z,0
2017-08-08T01:23:40.006Z,0
2017-08-08T01:24:40.016Z,0
2017-08-08T01:25:39.805Z,0
2017-08-08T01:26:40.105Z,0
2017-08-08T01:27:39.824Z,0
2017-08-08T01:28:39.865Z,0
2017-08-08T01:29:39.913Z,0
2017-08-08T01:30:40.241Z,0
2017-08-08T01:31:40.292Z,0
2017-08-08T01:32:39.717Z,0
2017-08-08T01:33:40.677Z,0
2017-08-08T01:34:39.846Z,0
2017-08-08T01:35:40.479Z,0
2017-08-08T01:36:40.556Z,0
2017-08-08T01:37:40.837Z,0
2017-08-08T01:38:40.631Z,0
2017-08-08T01:39:40.921Z,0
2017-08-08T01:40:40.976Z,0
2017-08-08T01:41:40.715Z,0
2017-08-08T01:42:40.735Z,0
2017-08-08T01:43:41.067Z,0
2017-08-08T01:44:40.480Z,0
2017-08-08T01:45:41.439Z,0
2017-08-08T01:46:41.471Z,0
2017-08-08T01:47:41.209Z,0
2017-08-08T01:48:40.944Z,0
2017-08-08T01:49:41.626Z,0
2017-08-08T01:50:43.092Z,0
2017-08-08T01:51:41.981Z,0
2017-08-08T01:52:42.001Z,0
2017-08-08T01:53:42.066Z,0
2017-08-08T01:54:42.076Z,0
2017-08-08T01:55:42.122Z,0
2017-08-08T01:56:42.176Z,0
2017-08-08T01:57:42.172Z,0
2017-08-08T01:58:42.209Z,0
2017-08-08T01:59:42.240Z,0
2017-08-08T02:00:41.938Z,0
2017-08-08T02:01:42.492Z,0
2017-08-08T02:02:41.716Z,0
2017-08-08T02:03:42.410Z,0
2017-08-08T02:04:42.154Z,0
2017-08-08T02:05:43.140Z,0
2017-08-08T02:06:43.146Z,0
2017-08-08T02:07:43.201Z,0
2017-08-08T02:08:43.271Z,0
2017-08-08T02:09:43.266Z,0
2017-08-08T02:10:43.301Z,0
2017-08-08T02:11:43.016Z,0
2017-08-08T02:12:43.656Z,0
2017-08-08T02:13:43.349Z,0
2017-08-08T02:14:43.980Z,0
2017-08-08T02:15:43.402Z,0
2017-08-08T02:16:44.347Z,0
2017-08-08T02:17:44.422Z,0
2017-08-08T02:18:43.853Z,0
2017-08-08T02:19:44.802Z,0
2017-08-08T02:20:44.872Z,0
2017-08-08T02:21:44.856Z,0
2017-08-08T02:22:44.307Z,0
2017-08-08T02:23:44.947Z,0
2017-08-08T02:24:44.975Z,0
2017-08-08T02:25:45.071Z,0
2017-08-08T02:26:45.347Z,0
2017-08-08T02:27:45.072Z,0
2017-08-08T02:28:45.114Z,0
2017-08-08T02:29:45.443Z,0
2017-08-08T02:30:46.141Z,0
2017-08-08T02:31:45.224Z,0
2017-08-08T02:32:45.876Z,0
2017-08-08T02:33:46.234Z,0
2017-08-08T02:34:46.244Z,0
2017-08-08T02:35:45.680Z,0
2017-08-08T02:36:46.050Z,0
2017-08-08T02:37:46.394Z,0
2017-08-08T02:38:46.411Z,0
2017-08-08T02:39:46.483Z,0
2017-08-08T02:40:46.163Z,0
2017-08-08T02:41:45.555Z,0
2017-08-08T02:42:46.546Z,0
2017-08-08T02:43:46.273Z,0
2017-08-08T02:44:46.282Z,0
2017-08-08T02:45:46.334Z,0
2017-08-08T02:46:46.970Z,0
2017-08-08T02:47:46.703Z,0
2017-08-08T02:48:46.742Z,0
2017-08-08T02:49:46.742Z,0
2017-08-08T02:50:47.438Z,0
2017-08-08T02:51:47.139Z,0
2017-08-08T02:52:47.477Z,0
2017-08-08T02:53:47.477Z,0
2017-08-08T02:54:47.255Z,0
2017-08-08T02:55:48.236Z,0
2017-08-08T02:56:47.653Z,0
2017-08-08T02:57:48.016Z,0
2017-08-08T02:58:48.687Z,0
2017-08-08T02:59:49.012Z,0
2017-08-08T03:00:48.738Z,0
2017-08-08T03:01:49.151Z,0
2017-08-08T03:02:49.135Z,0
2017-08-08T03:03:48.867Z,0
2017-08-08T03:04:48.876Z,0
2017-08-08T03:05:49.206Z,0
2017-08-08T03:06:49.250Z,0
2017-08-08T03:07:48.968Z,0
2017-08-08T03:08:49.337Z,0
2017-08-08T03:09:49.342Z,0
2017-08-08T03:10:49.358Z,0
2017-08-08T03:11:49.075Z,0
2017-08-08T03:12:49.115Z,0
2017-08-08T03:13:49.169Z,0
2017-08-08T03:14:49.481Z,0
2017-08-08T03:15:49.517Z,0
2017-08-08T03:16:49.545Z,0
2017-08-08T03:17:49.588Z,0
2017-08-08T03:18:49.643Z,0
2017-08-08T03:19:49.341Z,0
2017-08-08T03:20:49.063Z,0
2017-08-08T03:21:49.739Z,0
2017-08-08T03:22:49.157Z,0
2017-08-08T03:23:49.229Z,0
2017-08-08T03:24:49.851Z,0
2017-08-08T03:25:49.890Z,0
2017-08-08T03:26:50.206Z,0
2017-08-08T03:27:50.239Z,0
2017-08-08T03:28:50.265Z,0
2017-08-08T03:29:49.670Z,0
2017-08-08T03:30:50.115Z,0
2017-08-08T03:31:50.365Z,0
2017-08-08T03:32:50.412Z,5
2017-08-08T03:33:50.112Z,5
2017-08-08T03:34:50.464Z,5
2017-08-08T03:35:50.539Z,5
2017-08-08T03:36:50.257Z,5
2017-08-08T03:37:50.573Z,5
2017-08-08T03:38:50.647Z,5
2017-08-08T03:39:50.656Z,5
2017-08-08T03:40:50.357Z,10
2017-08-08T03:41:50.406Z,10
2017-08-08T03:42:50.433Z,10
2017-08-08T03:43:50.453Z,10
2017-08-08T03:44:50.800Z,10
2017-08-08T03:45:50.257Z,10
2017-08-08T03:46:50.870Z,10
2017-08-08T03:47:51.245Z,15
2017-08-08T03:48:50.942Z,15
2017-08-08T03:49:51.310Z,15
2017-08-08T03:50:51.362Z,15
2017-08-08T03:51:51.366Z,15
2017-08-08T03:52:51.407Z,15
2017-08-08T03:53:51.169Z,20
2017-08-08T03:54:51.486Z,20
2017-08-08T03:55:51.188Z,20
2017-08-08T03:56:51.555Z,25
2017-08-08T03:57:51.262Z,25
2017-08-08T03:58:51.019Z,25
2017-08-08T03:59:51.678Z,30
2017-08-08T04:00:51.825Z,30
2017-08-08T04:01:52.500Z,30
2017-08-08T04:02:51.889Z,30
2017-08-08T04:03:52.681Z,35
2017-08-08T04:04:52.717Z,35
2017-08-08T04:05:52.747Z,35
2017-08-08T04:06:52.764Z,40
2017-08-08T04:07:52.807Z,40
2017-08-08T04:08:52.850Z,45
2017-08-08T04:09:52.550Z,50
2017-08-08T04:10:52.917Z,50
2017-08-08T04:11:52.619Z,55
2017-08-08T04:12:52.965Z,55
2017-08-08T04:13:53.005Z,60
2017-08-08T04:14:52.710Z,65
2017-08-08T04:15:53.076Z,65
2017-08-08T04:16:53.103Z,65
2017-08-08T04:17:53.130Z,70
2017-08-08T04:18:53.158Z,70
2017-08-08T04:19:52.913Z,75
2017-08-08T04:20:53.680Z,75
2017-08-08T04:21:53.419Z,75
2017-08-08T04:22:53.415Z,75
2017-08-08T04:23:53.469Z,80
2017-08-08T04:24:53.825Z,80
2017-08-08T04:25:53.844Z,80
2017-08-08T04:26:53.877Z,80
2017-08-08T04:27:53.289Z,85
2017-08-08T04:28:53.777Z,85
2017-08-08T04:29:54.254Z,85
2017-08-08T04:30:54.755Z,90
2017-08-08T04:31:55.524Z,90
2017-08-08T04:32:55.231Z,90
2017-08-08T04:33:55.608Z,90
2017-08-08T04:34:55.627Z,95
2017-08-08T04:35:55.350Z,95
2017-08-08T04:36:55.700Z,95
2017-08-08T04:37:55.736Z,95
2017-08-08T04:38:55.143Z,95
2017-08-08T04:39:55.624Z,95
2017-08-08T04:40:56.734Z,100
2017-08-08T04:41:56.419Z,100
2017-08-08T04:42:56.991Z,100
2017-08-08T04:43:58.505Z,105
2017-08-08T04:44:58.280Z,110
2017-08-08T04:45:58.824Z,110
2017-08-08T04:46:58.599Z,115
2017-08-08T04:47:58.352Z,115
2017-08-08T04:48:58.329Z,120
2017-08-08T04:49:58.386Z,120
2017-08-08T04:50:58.244Z,130
2017-08-08T04:51:58.191Z,135
2017-08-08T04:52:58.190Z,145
2017-08-08T04:53:58.517Z,155
2017-08-08T04:54:58.512Z,165
2017-08-08T04:55:57.590Z,170
2017-08-08T04:56:58.398Z,175
2017-08-08T04:57:59.153Z,185
2017-08-08T04:58:59.052Z,185
2017-08-08T04:59:58.494Z,190
2017-08-08T05:00:58.844Z,195
2017-08-08T05:01:58.902Z,195
2017-08-08T05:02:58.899Z,200
2017-08-08T05:03:58.938Z,210
2017-08-08T05:04:58.974Z,225
2017-08-08T05:05:59.036Z,220
2017-08-08T05:06:59.040Z,220
2017-08-08T05:07:59.070Z,220
2017-08-08T05:08:59.104Z,215
2017-08-08T05:09:58.809Z,215
2017-08-08T05:10:59.180Z,215
2017-08-08T05:11:58.586Z,210
2017-08-08T05:12:59.707Z,205
2017-08-08T05:13:59.748Z,205
2017-08-08T05:14:59.445Z,200
2017-08-08T05:15:59.500Z,195
2017-08-08T05:16:59.970Z,190
2017-08-08T05:18:00.316Z,185
2017-08-08T05:19:00.353Z,190
2017-08-08T05:19:59.731Z,190
2017-08-08T05:21:00.528Z,195
2017-08-08T05:22:00.551Z,200
2017-08-08T05:23:00.601Z,205
2017-08-08T05:24:00.307Z,210
2017-08-08T05:25:00.150Z,225
2017-08-08T05:26:00.982Z,235
2017-08-08T05:27:01.333Z,230
2017-08-08T05:28:01.065Z,245
2017-08-08T05:29:01.389Z,260
2017-08-08T05:30:01.222Z,315
2017-08-08T05:31:01.168Z,280
2017-08-08T05:32:01.165Z,290
2017-08-08T05:33:01.535Z,325
2017-08-08T05:34:01.537Z,315
2017-08-08T05:35:01.266Z,380
2017-08-08T05:36:02.053Z,385
2017-08-08T05:37:02.074Z,340
2017-08-08T05:38:01.818Z,395
2017-08-08T05:39:02.151Z,350
2017-08-08T05:40:02.181Z,370
2017-08-08T05:41:02.222Z,365
2017-08-08T05:42:01.948Z,365
2017-08-08T05:43:02.768Z,340
2017-08-08T05:44:02.766Z,340
2017-08-08T05:45:02.841Z,430
2017-08-08T05:46:02.519Z,655
2017-08-08T05:47:02.558Z,520
2017-08-08T05:48:02.913Z,480
2017-08-08T05:49:02.937Z,515
2017-08-08T05:50:02.668Z,460
2017-08-08T05:51:03.026Z,400
2017-08-08T05:52:02.772Z,425
2017-08-08T05:53:02.781Z,490
2017-08-08T05:54:03.270Z,425
2017-08-08T05:55:03.700Z,410
2017-08-08T05:56:03.721Z,405
2017-08-08T05:57:03.379Z,405
2017-08-08T05:58:04.175Z,405
2017-08-08T05:59:04.204Z,400
2017-08-08T06:00:04.299Z,390
2017-08-08T06:01:04.276Z,395
2017-08-08T06:02:04.300Z,365
2017-08-08T06:03:04.033Z,445
2017-08-08T06:04:04.073Z,415
2017-08-08T06:05:04.220Z,405
2017-08-08T06:06:04.459Z,415
2017-08-08T06:07:04.177Z,420
2017-08-08T06:08:04.523Z,455
2017-08-08T06:09:04.238Z,465
2017-08-08T06:10:04.599Z,510
2017-08-08T06:11:04.298Z,625
2017-08-08T06:12:04.678Z,725
2017-08-08T06:13:04.693Z,845
2017-08-08T06:14:04.092Z,1055
2017-08-08T06:15:04.334Z,1195
2017-08-08T06:16:05.290Z,1050
2017-08-08T06:17:04.667Z,1170
2017-08-08T06:18:05.140Z,1055
2017-08-08T06:19:05.494Z,1070
2017-08-08T06:20:05.222Z,1210
2017-08-08T06:21:05.580Z,1330
2017-08-08T06:22:05.288Z,1320
2017-08-08T06:23:05.015Z,1320
2017-08-08T06:24:06.191Z,1275
2017-08-08T06:25:05.881Z,1270
2017-08-08T06:26:05.933Z,1290
2017-08-08T06:27:06.246Z,1325
2017-08-08T06:28:05.982Z,1420
2017-08-08T06:29:06.003Z,1570
2017-08-08T06:30:06.660Z,1600
2017-08-08T06:31:06.521Z,1080
2017-08-08T06:32:06.564Z,1075
2017-08-08T06:33:06.587Z,1390
2017-08-08T06:34:06.946Z,1455
2017-08-08T06:35:06.846Z,1650
2017-08-08T06:36:07.007Z,1570
2017-08-08T06:37:06.752Z,1565
2017-08-08T06:38:07.100Z,1615
2017-08-08T06:39:06.832Z,1685
2017-08-08T06:40:06.899Z,1505
2017-08-08T06:41:07.216Z,1615
2017-08-08T06:42:07.248Z,1610
2017-08-08T06:43:07.299Z,1680
2017-08-08T06:44:07.352Z,1550
2017-08-08T06:45:07.381Z,1525
2017-08-08T06:46:07.411Z,1370
2017-08-08T06:47:07.457Z,1435
2017-08-08T06:48:07.185Z,1390
2017-08-08T06:49:07.210Z,1300
2017-08-08T06:50:07.255Z,1470
2017-08-08T06:51:07.298Z,1540
2017-08-08T06:52:07.630Z,1660
2017-08-08T06:53:07.405Z,1795
2017-08-08T06:54:07.413Z,1655
2017-08-08T06:55:07.456Z,1450
2017-08-08T06:56:07.521Z,1265
2017-08-08T06:57:07.860Z,1185
2017-08-08T06:58:07.591Z,1260
2017-08-08T06:59:07.373Z,1725
2017-08-08T07:00:08.609Z,1690
2017-08-08T07:01:07.833Z,1705
2017-08-08T07:02:07.741Z,1675
2017-08-08T07:03:07.458Z,1670
2017-08-08T07:04:08.296Z,1680
2017-08-08T07:05:08.341Z,1720
2017-08-08T07:06:07.697Z,1715
2017-08-08T07:07:08.936Z,1645
2017-08-08T07:08:08.654Z,1485
2017-08-08T07:09:08.951Z,1515
2017-08-08T07:10:08.334Z,1610
2017-08-08T07:11:09.141Z,1530
2017-08-08T07:12:09.178Z,1510
2017-08-08T07:13:09.227Z,1470
2017-08-08T07:14:09.267Z,1485
2017-08-08T07:15:09.050Z,1580
2017-08-08T07:16:09.658Z,1600
2017-08-08T07:17:09.696Z,1575
2017-08-08T07:18:09.745Z,1495
2017-08-08T07:19:09.471Z,1555
2017-08-08T07:20:09.627Z,1605
2017-08-08T07:21:09.854Z,1620
2017-08-08T07:22:09.256Z,1655
2017-08-08T07:23:09.712Z,1705
2017-08-08T07:24:09.781Z,1730
2017-08-08T07:25:10.724Z,1740
2017-08-08T07:26:10.346Z,1815
2017-08-08T07:27:10.367Z,1865
2017-08-08T07:28:10.094Z,1920
2017-08-08T07:29:10.920Z,1980
2017-08-08T07:30:11.984Z,2110
2017-08-08T07:31:11.431Z,2055
2017-08-08T07:32:11.495Z,1975
2017-08-08T07:33:11.674Z,1935
2017-08-08T07:34:12.496Z,1865
2017-08-08T07:35:12.326Z,1920
2017-08-08T07:36:13.017Z,1920
2017-08-08T07:37:13.066Z,1945
2017-08-08T07:38:13.415Z,2055
2017-08-08T07:39:13.471Z,2060
2017-08-08T07:40:13.173Z,2090
2017-08-08T07:41:12.921Z,2070
2017-08-08T07:42:13.742Z,2115
2017-08-08T07:43:14.069Z,2130
2017-08-08T07:44:14.156Z,2180
2017-08-08T07:45:13.983Z,2200
2017-08-08T07:46:13.918Z,2040
2017-08-08T07:47:14.264Z,2120
2017-08-08T07:48:14.319Z,2030
2017-08-08T07:49:14.368Z,2090
2017-08-08T07:50:14.136Z,2155
2017-08-08T07:51:14.438Z,2185
2017-08-08T07:52:14.467Z,2040
2017-08-08T07:53:14.546Z,1930
2017-08-08T07:54:13.951Z,1925
2017-08-08T07:55:14.842Z,2025
2017-08-08T07:56:15.196Z,1950
2017-08-08T07:57:14.566Z,2010
2017-08-08T07:58:14.717Z,2065
2017-08-08T07:59:15.220Z,2105
2017-08-08T08:00:15.617Z,2095
2017-08-08T08:01:15.749Z,1790
2017-08-08T08:02:15.819Z,1815
2017-08-08T08:03:15.845Z,2075
2017-08-08T08:04:15.862Z,2045
2017-08-08T08:05:16.296Z,2000
2017-08-08T08:06:16.262Z,2140
2017-08-08T08:07:16.321Z,2060
2017-08-08T08:08:16.048Z,1990
2017-08-08T08:09:16.413Z,1780
2017-08-08T08:10:16.130Z,1850
2017-08-08T08:11:16.499Z,1740
2017-08-08T08:12:16.539Z,1450
2017-08-08T08:13:16.273Z,1420
2017-08-08T08:14:16.614Z,1805
2017-08-08T08:15:16.677Z,1905
2017-08-08T08:16:16.403Z,2080
2017-08-08T08:17:17.205Z,2115
2017-08-08T08:18:16.940Z,1965
2017-08-08T08:19:17.303Z,1975
2017-08-08T08:20:17.002Z,2020
2017-08-08T08:21:17.055Z,1865
2017-08-08T08:22:17.113Z,1775
2017-08-08T08:23:17.133Z,1745
2017-08-08T08:24:17.174Z,2010
2017-08-08T08:25:17.740Z,2080
2017-08-08T08:26:17.592Z,2020
2017-08-08T08:27:16.985Z,2065
2017-08-08T08:28:18.111Z,2115
2017-08-08T08:29:17.824Z,2165
2017-08-08T08:30:17.876Z,2250
2017-08-08T08:31:18.261Z,2280
2017-08-08T08:32:18.324Z,2165
2017-08-08T08:33:18.328Z,1945
2017-08-08T08:34:18.065Z,2045
2017-08-08T08:35:18.105Z,2195
2017-08-08T08:36:18.452Z,2095
2017-08-08T08:37:18.500Z,1950
2017-08-08T08:38:18.539Z,1905
2017-08-08T08:39:18.277Z,2025
2017-08-08T08:40:18.320Z,2060
2017-08-08T08:41:18.653Z,2185
2017-08-08T08:42:18.414Z,2115
2017-08-08T08:43:18.759Z,2320
2017-08-08T08:44:18.490Z,2385
2017-08-08T08:45:18.858Z,1955
2017-08-08T08:46:18.597Z,2345
2017-08-08T08:47:19.077Z,2360
2017-08-08T08:48:19.451Z,2340
2017-08-08T08:49:19.481Z,2245
2017-08-08T08:50:19.524Z,2335
2017-08-08T08:51:19.571Z,2255
2017-08-08T08:52:19.312Z,2190
2017-08-08T08:53:19.508Z,2235
2017-08-08T08:54:19.551Z,2090
2017-08-08T08:55:19.911Z,1710
2017-08-08T08:56:19.617Z,1035
2017-08-08T08:57:19.967Z,1480
2017-08-08T08:58:19.374Z,2390
2017-08-08T08:59:20.177Z,2440
2017-08-08T09:00:20.218Z,2735
2017-08-08T09:01:19.993Z,2470
2017-08-08T09:02:20.784Z,2630
2017-08-08T09:03:20.180Z,2470
2017-08-08T09:04:21.314Z,2520
2017-08-08T09:05:21.364Z,2780
2017-08-08T09:06:21.079Z,2515
2017-08-08T09:07:21.447Z,2655
2017-08-08T09:08:21.159Z,1985
2017-08-08T09:09:21.221Z,2685
2017-08-08T09:10:21.267Z,2970
2017-08-08T09:11:20.995Z,2790
2017-08-08T09:12:21.170Z,2925
2017-08-08T09:13:21.982Z,2915
2017-08-08T09:14:21.721Z,2925
2017-08-08T09:15:21.748Z,2965
2017-08-08T09:16:21.776Z,3000
2017-08-08T09:17:21.213Z,2925
2017-08-08T09:18:22.034Z,2915
2017-08-08T09:19:22.075Z,2885
2017-08-08T09:20:22.438Z,2555
2017-08-08T09:21:21.836Z,2610
2017-08-08T09:22:22.635Z,2645
2017-08-08T09:23:22.375Z,2795
2017-08-08T09:24:23.169Z,2865
2017-08-08T09:25:22.908Z,2930
2017-08-08T09:26:22.633Z,2925
2017-08-08T09:27:23.467Z,2940
2017-08-08T09:28:23.830Z,3075
2017-08-08T09:29:23.867Z,3000
2017-08-08T09:30:23.921Z,2935
2017-08-08T09:31:23.322Z,2855
2017-08-08T09:32:24.135Z,2995
2017-08-08T09:33:24.525Z,3175
2017-08-08T09:34:24.564Z,3125
2017-08-08T09:35:24.596Z,2665
2017-08-08T09:36:24.327Z,2420
2017-08-08T09:37:24.709Z,3275
2017-08-08T09:38:24.759Z,2870
2017-08-08T09:39:24.773Z,2635
2017-08-08T09:40:24.522Z,2380
2017-08-08T09:41:24.561Z,1975
2017-08-08T09:42:24.615Z,1820
2017-08-08T09:43:24.334Z,2150
2017-08-08T09:44:25.165Z,1890
2017-08-08T09:45:25.974Z,2175
2017-08-08T09:46:26.001Z,2080
2017-08-08T09:47:25.738Z,1950
2017-08-08T09:48:26.080Z,2070
2017-08-08T09:49:25.825Z,1965
2017-08-08T09:50:26.107Z,1760
2017-08-08T09:51:27.235Z,1845
2017-08-08T09:52:27.277Z,1975
2017-08-08T09:53:27.014Z,2030
2017-08-08T09:54:27.363Z,2025
2017-08-08T09:55:27.205Z,1785
2017-08-08T09:56:27.454Z,1745
2017-08-08T09:57:27.518Z,1765
2017-08-08T09:58:27.246Z,1640
2017-08-08T09:59:27.242Z,1370
2017-08-08T10:00:27.335Z,1310
2017-08-08T10:01:27.374Z,1310
2017-08-08T10:02:27.097Z,1340
2017-08-08T10:03:27.920Z,1430
2017-08-08T10:04:27.634Z,1390
2017-08-08T10:05:28.468Z,1425
2017-08-08T10:06:28.476Z,1710
2017-08-08T10:07:28.954Z,1865
2017-08-08T10:08:29.017Z,1885
2017-08-08T10:09:29.047Z,1945
2017-08-08T10:10:28.775Z,2000
2017-08-08T10:11:29.897Z,2075
2017-08-08T10:12:29.641Z,2065
2017-08-08T10:13:30.429Z,1995
2017-08-08T10:14:30.477Z,2125
2017-08-08T10:15:30.207Z,2260
2017-08-08T10:16:30.241Z,2170
2017-08-08T10:17:30.386Z,2070
2017-08-08T10:18:31.194Z,2080
2017-08-08T10:19:31.235Z,2085
2017-08-08T10:20:30.955Z,1845
2017-08-08T10:21:31.000Z,1850
2017-08-08T10:22:30.736Z,1925
2017-08-08T10:23:31.855Z,1825
2017-08-08T10:24:31.938Z,1695
2017-08-08T10:25:31.967Z,1680
2017-08-08T10:26:31.997Z,1655
2017-08-08T10:27:31.385Z,1585
2017-08-08T10:28:32.077Z,1475
2017-08-08T10:29:32.130Z,1425
2017-08-08T10:30:31.848Z,1305
2017-08-08T10:31:32.004Z,1220
2017-08-08T10:32:32.814Z,1225
2017-08-08T10:33:33.308Z,1300
2017-08-08T10:34:33.339Z,1315
2017-08-08T10:35:33.695Z,1345
2017-08-08T10:36:33.740Z,1310
2017-08-08T10:37:33.789Z,1245
2017-08-08T10:38:33.188Z,1075
2017-08-08T10:39:34.331Z,1055
2017-08-08T10:40:34.379Z,1005
2017-08-08T10:41:34.400Z,895
2017-08-08T10:42:34.441Z,825
2017-08-08T10:43:34.178Z,835
2017-08-08T10:44:34.202Z,885
2017-08-08T10:45:34.242Z,895
2017-08-08T10:46:35.032Z,900
2017-08-08T10:47:35.073Z,835
2017-08-08T10:48:35.125Z,865
2017-08-08T10:49:35.152Z,850
2017-08-08T10:50:35.203Z,845
2017-08-08T10:51:35.240Z,810
2017-08-08T10:52:34.640Z,830
2017-08-08T10:53:35.521Z,765
2017-08-08T10:54:35.537Z,775
2017-08-08T10:55:35.223Z,825
2017-08-08T10:56:35.569Z,885
2017-08-08T10:57:35.638Z,870
2017-08-08T10:58:35.657Z,855
2017-08-08T10:59:35.377Z,800
2017-08-08T11:00:35.747Z,765
2017-08-08T11:01:35.795Z,760
2017-08-08T11:02:35.825Z,835
2017-08-08T11:03:35.230Z,815
2017-08-08T11:04:36.046Z,840
2017-08-08T11:05:35.747Z,770
2017-08-08T11:06:36.095Z,860
2017-08-08T11:07:36.142Z,915
2017-08-08T11:08:36.191Z,860
2017-08-08T11:09:36.240Z,780
2017-08-08T11:10:36.290Z,755
2017-08-08T11:11:36.001Z,695
2017-08-08T11:12:36.344Z,675
2017-08-08T11:13:36.398Z,660
2017-08-08T11:14:35.806Z,665
2017-08-08T11:15:36.616Z,685
2017-08-08T11:16:37.104Z,695
2017-08-08T11:17:36.826Z,700
2017-08-08T11:18:36.845Z,685
2017-08-08T11:19:37.337Z,690
2017-08-08T11:20:37.836Z,690
2017-08-08T11:21:37.566Z,680
2017-08-08T11:22:38.355Z,705
2017-08-08T11:23:37.734Z,720
2017-08-08T11:24:38.551Z,720
2017-08-08T11:25:38.552Z,710
2017-08-08T11:26:38.284Z,710
2017-08-08T11:27:38.655Z,700
2017-08-08T11:28:38.355Z,685
2017-08-08T11:29:38.409Z,675
2017-08-08T11:30:38.899Z,660
2017-08-08T11:31:38.944Z,635
2017-08-08T11:32:38.990Z,620
2017-08-08T11:33:39.002Z,605
2017-08-08T11:34:38.808Z,605
2017-08-08T11:35:39.079Z,600
2017-08-08T11:36:39.143Z,595
2017-08-08T11:37:38.854Z,590
2017-08-08T11:38:39.201Z,590
2017-08-08T11:39:39.250Z,590
2017-08-08T11:40:38.979Z,605
2017-08-08T11:41:39.329Z,615
2017-08-08T11:42:39.058Z,625
2017-08-08T11:43:39.403Z,630
2017-08-08T11:44:39.449Z,645
2017-08-08T11:45:38.856Z,655
2017-08-08T11:46:39.673Z,660
2017-08-08T11:47:40.014Z,665
2017-08-08T11:48:40.055Z,680
2017-08-08T11:49:40.093Z,695
2017-08-08T11:50:39.830Z,690
2017-08-08T11:51:39.544Z,685
2017-08-08T11:52:40.071Z,655
2017-08-08T11:53:41.209Z,645
2017-08-08T11:54:40.937Z,640
2017-08-08T11:55:41.286Z,635
2017-08-08T11:56:41.329Z,610
2017-08-08T11:57:41.371Z,585
2017-08-08T11:58:41.095Z,570
2017-08-08T11:59:41.133Z,570
2017-08-08T12:00:41.149Z,565
2017-08-08T12:01:41.604Z,550
2017-08-08T12:02:41.573Z,550
2017-08-08T12:03:41.598Z,555
2017-08-08T12:04:41.331Z,495
2017-08-08T12:05:41.673Z,435
2017-08-08T12:06:41.085Z,395
2017-08-08T12:07:42.206Z,415
2017-08-08T12:08:42.249Z,445
2017-08-08T12:09:42.301Z,445
2017-08-08T12:10:46.803Z,470
2017-08-08T12:11:41.884Z,455
2017-08-08T12:12:41.771Z,490
2017-08-08T12:13:42.206Z,525
2017-08-08T12:14:42.594Z,535
2017-08-08T12:15:42.327Z,525
2017-08-08T12:16:42.491Z,505
2017-08-08T12:17:42.534Z,515
2017-08-08T12:18:42.576Z,430
2017-08-08T12:19:42.597Z,395
2017-08-08T12:20:43.057Z,390
2017-08-08T12:21:43.111Z,395
2017-08-08T12:22:42.848Z,405
2017-08-08T12:23:43.635Z,435
2017-08-08T12:24:43.844Z,455
2017-08-08T12:25:43.785Z,405
2017-08-08T12:26:44.162Z,365
2017-08-08T12:27:43.615Z,355
2017-08-08T12:28:43.525Z,355
2017-08-08T12:29:43.997Z,370
2017-08-08T12:30:44.379Z,445
2017-08-08T12:31:44.433Z,460
2017-08-08T12:32:44.114Z,390
2017-08-08T12:33:44.154Z,360
2017-08-08T12:34:44.516Z,330
2017-08-08T12:35:44.567Z,350
2017-08-08T12:36:43.957Z,370
2017-08-08T12:37:44.745Z,455
2017-08-08T12:38:44.471Z,395
2017-08-08T12:39:44.503Z,330
2017-08-08T12:40:43.930Z,325
2017-08-08T12:41:44.429Z,320
2017-08-08T12:42:45.234Z,290
2017-08-08T12:43:45.618Z,275
2017-08-08T12:44:45.320Z,245
2017-08-08T12:45:45.362Z,260
2017-08-08T12:46:45.402Z,260
2017-08-08T12:47:44.809Z,280
2017-08-08T12:48:45.604Z,280
2017-08-08T12:49:45.674Z,275
2017-08-08T12:50:45.706Z,280
2017-08-08T12:51:45.742Z,275
2017-08-08T12:52:45.773Z,270
2017-08-08T12:53:45.797Z,265
2017-08-08T12:54:45.861Z,270
2017-08-08T12:55:45.865Z,290
2017-08-08T12:56:46.270Z,280
2017-08-08T12:57:46.306Z,250
2017-08-08T12:58:45.697Z,235
2017-08-08T12:59:46.508Z,240
2017-08-08T13:00:46.546Z,245
2017-08-08T13:01:46.261Z,245
2017-08-08T13:02:46.431Z,255
2017-08-08T13:03:47.255Z,260
2017-08-08T13:04:46.641Z,250
2017-08-08T13:05:47.767Z,245
2017-08-08T13:06:47.481Z,270
2017-08-08T13:07:47.012Z,290
2017-08-08T13:08:47.366Z,315
2017-08-08T13:09:48.024Z,395
2017-08-08T13:10:48.097Z,340
2017-08-08T13:11:48.452Z,305
2017-08-08T13:12:48.475Z,265
2017-08-08T13:13:47.896Z,260
2017-08-08T13:14:48.702Z,240
2017-08-08T13:15:48.413Z,255
2017-08-08T13:16:48.774Z,250
2017-08-08T13:17:48.813Z,230
2017-08-08T13:18:48.867Z,240
2017-08-08T13:19:48.896Z,270
2017-08-08T13:20:48.954Z,260
2017-08-08T13:21:48.976Z,205
2017-08-08T13:22:49.014Z,185
2017-08-08T13:23:49.059Z,175
2017-08-08T13:24:48.769Z,190
2017-08-08T13:25:48.803Z,190
2017-08-08T13:26:49.176Z,190
2017-08-08T13:27:49.213Z,190
2017-08-08T13:28:49.256Z,190
2017-08-08T13:29:49.286Z,190
2017-08-08T13:30:48.682Z,190
2017-08-08T13:31:49.205Z,185
2017-08-08T13:32:49.699Z,180
2017-08-08T13:33:50.847Z,170
2017-08-08T13:34:50.891Z,175
2017-08-08T13:35:50.270Z,175
2017-08-08T13:36:50.446Z,175
2017-08-08T13:37:51.117Z,180
2017-08-08T13:38:50.522Z,180
2017-08-08T13:39:51.315Z,180
2017-08-08T13:40:51.681Z,180
2017-08-08T13:41:51.724Z,180
2017-08-08T13:42:51.770Z,180
2017-08-08T13:43:51.803Z,175
2017-08-08T13:44:51.844Z,175
2017-08-08T13:45:51.240Z,170
2017-08-08T13:46:52.057Z,170
2017-08-08T13:47:51.764Z,170
2017-08-08T13:48:52.601Z,165
2017-08-08T13:49:52.772Z,165
2017-08-08T13:50:53.593Z,165
2017-08-08T13:51:53.601Z,165
2017-08-08T13:52:53.372Z,160
2017-08-08T13:53:53.541Z,160
2017-08-08T13:54:54.358Z,165
2017-08-08T13:55:54.613Z,170